sensor_id;sensor_type;location;lat;lon;timestamp;P1;durP1;ratioP1;P2;durP2;ratioP2
49101;SDS011;34913;47.520;19.186;2023-12-29T00:00:49;78.47;;;44.95;;
49101;SDS011;34913;47.520;19.186;2023-12-29T00:03:15;82.95;;;45.50;;
49101;SDS011;34913;47.520;19.186;2023-12-29T00:05:40;86.45;;;45.47;;
49101;SDS011;34913;47.520;19.186;2023-12-29T00:08:05;85.18;;;46.65;;
49101;SDS011;34913;47.520;19.186;2023-12-29T00:10:31;84.15;;;46.80;;
49101;SDS011;34913;47.520;19.186;2023-12-29T00:12:56;82.28;;;44.80;;
49101;SDS011;34913;47.520;19.186;2023-12-29T00:15:21;77.85;;;43.95;;
49101;SDS011;34913;47.520;19.186;2023-12-29T00:17:47;82.80;;;44.80;;
49101;SDS011;34913;47.520;19.186;2023-12-29T00:20:12;83.65;;;43.22;;
49101;SDS011;34913;47.520;19.186;2023-12-29T00:22:38;80.65;;;43.45;;
49101;SDS011;34913;47.520;19.186;2023-12-29T00:25:03;81.32;;;44.25;;
49101;SDS011;34913;47.520;19.186;2023-12-29T00:27:29;78.53;;;43.65;;
49101;SDS011;34913;47.520;19.186;2023-12-29T00:29:54;80.60;;;44.10;;
49101;SDS011;34913;47.520;19.186;2023-12-29T00:32:20;75.40;;;42.03;;
49101;SDS011;34913;47.520;19.186;2023-12-29T00:34:45;77.20;;;43.72;;
49101;SDS011;34913;47.520;19.186;2023-12-29T00:37:11;77.55;;;41.35;;
49101;SDS011;34913;47.520;19.186;2023-12-29T00:39:36;73.20;;;41.53;;
49101;SDS011;34913;47.520;19.186;2023-12-29T00:42:05;75.65;;;41.45;;
49101;SDS011;34913;47.520;19.186;2023-12-29T00:44:33;73.43;;;41.35;;
49101;SDS011;34913;47.520;19.186;2023-12-29T00:46:59;70.38;;;39.35;;
49101;SDS011;34913;47.520;19.186;2023-12-29T00:49:25;68.88;;;39.80;;
49101;SDS011;34913;47.520;19.186;2023-12-29T00:51:50;76.80;;;40.80;;
49101;SDS011;34913;47.520;19.186;2023-12-29T00:54:16;72.85;;;40.08;;
49101;SDS011;34913;47.520;19.186;2023-12-29T00:56:47;78.50;;;41.22;;
49101;SDS011;34913;47.520;19.186;2023-12-29T00:59:13;80.68;;;41.85;;
49101;SDS011;34913;47.520;19.186;2023-12-29T01:01:38;68.13;;;38.75;;
49101;SDS011;34913;47.520;19.186;2023-12-29T01:04:04;75.00;;;40.50;;
49101;SDS011;34913;47.520;19.186;2023-12-29T01:06:29;72.80;;;40.50;;
49101;SDS011;34913;47.520;19.186;2023-12-29T01:08:55;69.97;;;39.35;;
49101;SDS011;34913;47.520;19.186;2023-12-29T01:11:20;68.65;;;38.03;;
49101;SDS011;34913;47.520;19.186;2023-12-29T01:13:45;68.15;;;38.10;;
49101;SDS011;34913;47.520;19.186;2023-12-29T01:16:11;61.28;;;36.90;;
49101;SDS011;34913;47.520;19.186;2023-12-29T01:18:36;61.08;;;35.03;;
49101;SDS011;34913;47.520;19.186;2023-12-29T01:21:01;56.60;;;34.40;;
49101;SDS011;34913;47.520;19.186;2023-12-29T01:23:27;60.08;;;35.15;;
49101;SDS011;34913;47.520;19.186;2023-12-29T01:25:52;59.40;;;34.00;;
49101;SDS011;34913;47.520;19.186;2023-12-29T01:28:17;56.50;;;33.03;;
49101;SDS011;34913;47.520;19.186;2023-12-29T01:30:42;58.70;;;32.47;;
49101;SDS011;34913;47.520;19.186;2023-12-29T01:33:08;60.45;;;33.30;;
49101;SDS011;34913;47.520;19.186;2023-12-29T01:35:33;60.40;;;33.03;;
49101;SDS011;34913;47.520;19.186;2023-12-29T01:37:58;64.93;;;35.25;;
49101;SDS011;34913;47.520;19.186;2023-12-29T01:40:24;60.97;;;33.50;;
49101;SDS011;34913;47.520;19.186;2023-12-29T01:42:49;59.05;;;33.33;;
49101;SDS011;34913;47.520;19.186;2023-12-29T01:45:23;55.85;;;32.42;;
49101;SDS011;34913;47.520;19.186;2023-12-29T01:47:51;58.72;;;32.42;;
49101;SDS011;34913;47.520;19.186;2023-12-29T01:50:17;58.85;;;31.92;;
49101;SDS011;34913;47.520;19.186;2023-12-29T01:52:45;57.45;;;32.35;;
49101;SDS011;34913;47.520;19.186;2023-12-29T01:55:14;58.78;;;32.20;;
49101;SDS011;34913;47.520;19.186;2023-12-29T01:57:42;55.50;;;31.08;;
49101;SDS011;34913;47.520;19.186;2023-12-29T02:00:08;54.70;;;31.13;;
49101;SDS011;34913;47.520;19.186;2023-12-29T02:02:34;56.30;;;31.42;;
49101;SDS011;34913;47.520;19.186;2023-12-29T02:05:00;52.65;;;30.73;;
49101;SDS011;34913;47.520;19.186;2023-12-29T02:07:26;54.92;;;31.33;;
49101;SDS011;34913;47.520;19.186;2023-12-29T02:09:55;56.35;;;31.92;;
49101;SDS011;34913;47.520;19.186;2023-12-29T02:12:24;62.38;;;33.67;;
49101;SDS011;34913;47.520;19.186;2023-12-29T02:14:50;61.47;;;32.03;;
49101;SDS011;34913;47.520;19.186;2023-12-29T02:17:26;58.58;;;33.10;;
49101;SDS011;34913;47.520;19.186;2023-12-29T02:19:54;60.25;;;33.30;;
49101;SDS011;34913;47.520;19.186;2023-12-29T02:22:20;60.33;;;31.90;;
49101;SDS011;34913;47.520;19.186;2023-12-29T02:24:49;58.83;;;33.35;;
49101;SDS011;34913;47.520;19.186;2023-12-29T02:30:08;55.13;;;31.60;;
49101;SDS011;34913;47.520;19.186;2023-12-29T02:32:36;55.53;;;30.80;;
49101;SDS011;34913;47.520;19.186;2023-12-29T02:35:06;55.08;;;30.63;;
49101;SDS011;34913;47.520;19.186;2023-12-29T02:37:36;55.80;;;30.95;;
49101;SDS011;34913;47.520;19.186;2023-12-29T02:40:02;58.00;;;31.15;;
49101;SDS011;34913;47.520;19.186;2023-12-29T02:42:28;62.75;;;31.52;;
49101;SDS011;34913;47.520;19.186;2023-12-29T02:44:53;56.67;;;30.83;;
49101;SDS011;34913;47.520;19.186;2023-12-29T02:47:19;58.22;;;30.15;;
49101;SDS011;34913;47.520;19.186;2023-12-29T02:49:46;65.25;;;30.10;;
49101;SDS011;34913;47.520;19.186;2023-12-29T02:52:11;58.70;;;29.13;;
49101;SDS011;34913;47.520;19.186;2023-12-29T02:54:37;81.03;;;30.27;;
49101;SDS011;34913;47.520;19.186;2023-12-29T02:57:02;82.45;;;29.52;;
49101;SDS011;34913;47.520;19.186;2023-12-29T02:59:28;65.13;;;29.88;;
49101;SDS011;34913;47.520;19.186;2023-12-29T03:01:53;75.35;;;31.42;;
49101;SDS011;34913;47.520;19.186;2023-12-29T03:04:18;104.13;;;32.58;;
49101;SDS011;34913;47.520;19.186;2023-12-29T03:06:44;103.57;;;32.40;;
49101;SDS011;34913;47.520;19.186;2023-12-29T03:09:10;118.75;;;33.15;;
49101;SDS011;34913;47.520;19.186;2023-12-29T03:11:35;114.47;;;33.92;;
49101;SDS011;34913;47.520;19.186;2023-12-29T03:14:00;99.15;;;32.35;;
49101;SDS011;34913;47.520;19.186;2023-12-29T03:16:25;105.10;;;32.08;;
49101;SDS011;34913;47.520;19.186;2023-12-29T03:18:51;96.88;;;31.38;;
49101;SDS011;34913;47.520;19.186;2023-12-29T03:21:16;91.22;;;31.38;;
49101;SDS011;34913;47.520;19.186;2023-12-29T03:23:41;106.97;;;30.15;;
49101;SDS011;34913;47.520;19.186;2023-12-29T03:26:07;82.40;;;29.58;;
49101;SDS011;34913;47.520;19.186;2023-12-29T03:28:32;78.65;;;28.17;;
49101;SDS011;34913;47.520;19.186;2023-12-29T03:30:57;61.83;;;27.20;;
49101;SDS011;34913;47.520;19.186;2023-12-29T03:33:23;122.15;;;27.63;;
49101;SDS011;34913;47.520;19.186;2023-12-29T03:35:48;90.82;;;26.38;;
49101;SDS011;34913;47.520;19.186;2023-12-29T03:38:13;98.97;;;28.17;;
49101;SDS011;34913;47.520;19.186;2023-12-29T03:40:39;122.53;;;26.35;;
49101;SDS011;34913;47.520;19.186;2023-12-29T03:43:05;78.82;;;26.58;;
49101;SDS011;34913;47.520;19.186;2023-12-29T03:45:30;101.18;;;26.85;;
49101;SDS011;34913;47.520;19.186;2023-12-29T03:47:55;106.63;;;27.20;;
49101;SDS011;34913;47.520;19.186;2023-12-29T03:50:21;102.00;;;26.95;;
49101;SDS011;34913;47.520;19.186;2023-12-29T03:52:46;84.40;;;27.42;;
49101;SDS011;34913;47.520;19.186;2023-12-29T03:55:12;97.93;;;26.10;;
49101;SDS011;34913;47.520;19.186;2023-12-29T03:57:37;82.20;;;26.08;;
49101;SDS011;34913;47.520;19.186;2023-12-29T04:00:03;60.03;;;25.95;;
49101;SDS011;34913;47.520;19.186;2023-12-29T04:02:29;80.70;;;25.75;;
49101;SDS011;34913;47.520;19.186;2023-12-29T04:04:54;85.82;;;25.98;;
49101;SDS011;34913;47.520;19.186;2023-12-29T04:07:20;64.05;;;25.58;;
49101;SDS011;34913;47.520;19.186;2023-12-29T04:09:45;84.65;;;26.02;;
49101;SDS011;34913;47.520;19.186;2023-12-29T04:12:10;70.45;;;25.63;;
49101;SDS011;34913;47.520;19.186;2023-12-29T04:14:36;88.45;;;24.88;;
49101;SDS011;34913;47.520;19.186;2023-12-29T04:17:01;82.65;;;24.65;;
49101;SDS011;34913;47.520;19.186;2023-12-29T04:19:28;72.15;;;23.83;;
49101;SDS011;34913;47.520;19.186;2023-12-29T04:21:54;81.47;;;26.23;;
49101;SDS011;34913;47.520;19.186;2023-12-29T04:24:19;102.38;;;25.23;;
49101;SDS011;34913;47.520;19.186;2023-12-29T04:26:44;70.07;;;23.98;;
49101;SDS011;34913;47.520;19.186;2023-12-29T04:29:10;79.20;;;24.33;;
49101;SDS011;34913;47.520;19.186;2023-12-29T04:31:35;65.65;;;24.00;;
49101;SDS011;34913;47.520;19.186;2023-12-29T04:34:00;76.63;;;23.52;;
49101;SDS011;34913;47.520;19.186;2023-12-29T04:36:25;83.65;;;22.80;;
49101;SDS011;34913;47.520;19.186;2023-12-29T04:38:51;87.63;;;24.10;;
49101;SDS011;34913;47.520;19.186;2023-12-29T04:41:16;83.20;;;22.95;;
49101;SDS011;34913;47.520;19.186;2023-12-29T04:43:41;80.57;;;22.45;;
49101;SDS011;34913;47.520;19.186;2023-12-29T04:46:07;61.88;;;22.10;;
49101;SDS011;34913;47.520;19.186;2023-12-29T04:48:32;79.05;;;22.13;;
49101;SDS011;34913;47.520;19.186;2023-12-29T04:50:57;57.95;;;21.63;;
49101;SDS011;34913;47.520;19.186;2023-12-29T04:53:23;70.97;;;21.92;;
49101;SDS011;34913;47.520;19.186;2023-12-29T04:55:48;74.40;;;21.88;;
49101;SDS011;34913;47.520;19.186;2023-12-29T04:58:13;65.88;;;21.98;;
49101;SDS011;34913;47.520;19.186;2023-12-29T05:00:39;53.80;;;21.38;;
49101;SDS011;34913;47.520;19.186;2023-12-29T05:03:04;73.90;;;21.45;;
49101;SDS011;34913;47.520;19.186;2023-12-29T05:05:30;63.75;;;21.63;;
49101;SDS011;34913;47.520;19.186;2023-12-29T05:07:55;57.20;;;21.60;;
49101;SDS011;34913;47.520;19.186;2023-12-29T05:10:20;59.97;;;22.33;;
49101;SDS011;34913;47.520;19.186;2023-12-29T05:12:46;62.08;;;22.63;;
49101;SDS011;34913;47.520;19.186;2023-12-29T05:15:11;64.85;;;22.35;;
49101;SDS011;34913;47.520;19.186;2023-12-29T05:17:36;69.50;;;22.55;;
49101;SDS011;34913;47.520;19.186;2023-12-29T05:20:04;55.17;;;21.42;;
49101;SDS011;34913;47.520;19.186;2023-12-29T05:22:31;64.65;;;21.63;;
49101;SDS011;34913;47.520;19.186;2023-12-29T05:24:56;87.45;;;21.48;;
49101;SDS011;34913;47.520;19.186;2023-12-29T05:27:25;54.53;;;22.17;;
49101;SDS011;34913;47.520;19.186;2023-12-29T05:29:50;59.60;;;23.00;;
49101;SDS011;34913;47.520;19.186;2023-12-29T05:32:15;57.60;;;22.33;;
49101;SDS011;34913;47.520;19.186;2023-12-29T05:34:41;59.40;;;22.80;;
49101;SDS011;34913;47.520;19.186;2023-12-29T05:37:06;59.72;;;22.52;;
49101;SDS011;34913;47.520;19.186;2023-12-29T05:39:31;62.63;;;22.42;;
49101;SDS011;34913;47.520;19.186;2023-12-29T05:41:57;65.43;;;21.98;;
49101;SDS011;34913;47.520;19.186;2023-12-29T05:44:22;62.50;;;21.85;;
49101;SDS011;34913;47.520;19.186;2023-12-29T05:46:48;72.28;;;22.80;;
49101;SDS011;34913;47.520;19.186;2023-12-29T05:49:13;64.57;;;22.88;;
49101;SDS011;34913;47.520;19.186;2023-12-29T05:51:38;49.38;;;22.27;;
49101;SDS011;34913;47.520;19.186;2023-12-29T05:54:04;54.90;;;23.63;;
49101;SDS011;34913;47.520;19.186;2023-12-29T05:56:29;42.33;;;23.38;;
49101;SDS011;34913;47.520;19.186;2023-12-29T05:58:54;47.83;;;23.02;;
49101;SDS011;34913;47.520;19.186;2023-12-29T06:01:20;48.92;;;24.48;;
49101;SDS011;34913;47.520;19.186;2023-12-29T06:03:45;52.70;;;23.02;;
49101;SDS011;34913;47.520;19.186;2023-12-29T06:06:10;39.15;;;23.15;;
49101;SDS011;34913;47.520;19.186;2023-12-29T06:08:36;80.25;;;23.23;;
49101;SDS011;34913;47.520;19.186;2023-12-29T06:11:01;53.45;;;22.88;;
49101;SDS011;34913;47.520;19.186;2023-12-29T06:13:27;56.72;;;22.20;;
49101;SDS011;34913;47.520;19.186;2023-12-29T06:15:53;52.05;;;22.80;;
49101;SDS011;34913;47.520;19.186;2023-12-29T06:18:18;46.75;;;23.30;;
49101;SDS011;34913;47.520;19.186;2023-12-29T06:20:43;54.65;;;23.50;;
49101;SDS011;34913;47.520;19.186;2023-12-29T06:23:09;45.03;;;21.63;;
49101;SDS011;34913;47.520;19.186;2023-12-29T06:25:34;69.55;;;22.25;;
49101;SDS011;34913;47.520;19.186;2023-12-29T06:27:59;80.05;;;21.27;;
49101;SDS011;34913;47.520;19.186;2023-12-29T06:30:25;80.90;;;22.40;;
49101;SDS011;34913;47.520;19.186;2023-12-29T06:32:50;56.78;;;21.35;;
49101;SDS011;34913;47.520;19.186;2023-12-29T06:35:17;44.95;;;23.08;;
49101;SDS011;34913;47.520;19.186;2023-12-29T06:37:42;52.22;;;23.17;;
49101;SDS011;34913;47.520;19.186;2023-12-29T06:40:07;60.30;;;23.38;;
49101;SDS011;34913;47.520;19.186;2023-12-29T06:42:33;59.35;;;24.08;;
49101;SDS011;34913;47.520;19.186;2023-12-29T06:44:58;42.42;;;22.30;;
49101;SDS011;34913;47.520;19.186;2023-12-29T06:47:24;40.95;;;21.55;;
49101;SDS011;34913;47.520;19.186;2023-12-29T06:49:49;43.95;;;21.45;;
49101;SDS011;34913;47.520;19.186;2023-12-29T06:52:15;62.58;;;22.52;;
49101;SDS011;34913;47.520;19.186;2023-12-29T06:54:41;43.00;;;21.08;;
49101;SDS011;34913;47.520;19.186;2023-12-29T06:57:06;67.32;;;23.00;;
49101;SDS011;34913;47.520;19.186;2023-12-29T06:59:32;58.33;;;22.27;;
49101;SDS011;34913;47.520;19.186;2023-12-29T07:01:57;131.68;;;24.40;;
49101;SDS011;34913;47.520;19.186;2023-12-29T07:04:22;89.93;;;23.02;;
49101;SDS011;34913;47.520;19.186;2023-12-29T07:06:47;64.63;;;23.90;;
49101;SDS011;34913;47.520;19.186;2023-12-29T07:09:13;69.57;;;23.63;;
49101;SDS011;34913;47.520;19.186;2023-12-29T07:11:38;79.30;;;23.38;;
49101;SDS011;34913;47.520;19.186;2023-12-29T07:14:04;48.63;;;20.95;;
49101;SDS011;34913;47.520;19.186;2023-12-29T07:16:29;64.13;;;21.45;;
49101;SDS011;34913;47.520;19.186;2023-12-29T07:18:54;74.75;;;22.30;;
49101;SDS011;34913;47.520;19.186;2023-12-29T07:21:20;70.38;;;22.35;;
49101;SDS011;34913;47.520;19.186;2023-12-29T07:23:45;62.03;;;23.55;;
49101;SDS011;34913;47.520;19.186;2023-12-29T07:26:11;63.15;;;23.80;;
49101;SDS011;34913;47.520;19.186;2023-12-29T07:28:36;76.85;;;24.35;;
49101;SDS011;34913;47.520;19.186;2023-12-29T07:31:01;61.53;;;24.15;;
49101;SDS011;34913;47.520;19.186;2023-12-29T07:33:27;56.63;;;23.00;;
49101;SDS011;34913;47.520;19.186;2023-12-29T07:35:53;73.63;;;24.55;;
49101;SDS011;34913;47.520;19.186;2023-12-29T07:38:19;106.55;;;24.65;;
49101;SDS011;34913;47.520;19.186;2023-12-29T07:40:44;57.03;;;24.38;;
49101;SDS011;34913;47.520;19.186;2023-12-29T07:43:10;61.67;;;24.45;;
49101;SDS011;34913;47.520;19.186;2023-12-29T07:45:36;49.38;;;24.50;;
49101;SDS011;34913;47.520;19.186;2023-12-29T07:48:02;63.33;;;25.40;;
49101;SDS011;34913;47.520;19.186;2023-12-29T07:50:28;86.13;;;26.33;;
49101;SDS011;34913;47.520;19.186;2023-12-29T07:52:54;60.10;;;25.65;;
49101;SDS011;34913;47.520;19.186;2023-12-29T07:55:19;61.13;;;24.75;;
49101;SDS011;34913;47.520;19.186;2023-12-29T07:57:44;64.05;;;24.40;;
49101;SDS011;34913;47.520;19.186;2023-12-29T08:00:12;70.13;;;24.63;;
49101;SDS011;34913;47.520;19.186;2023-12-29T08:02:39;83.65;;;23.42;;
49101;SDS011;34913;47.520;19.186;2023-12-29T08:05:04;53.55;;;23.58;;
49101;SDS011;34913;47.520;19.186;2023-12-29T08:07:30;63.13;;;23.00;;
49101;SDS011;34913;47.520;19.186;2023-12-29T08:09:55;65.00;;;24.08;;
49101;SDS011;34913;47.520;19.186;2023-12-29T08:12:20;77.97;;;24.05;;
49101;SDS011;34913;47.520;19.186;2023-12-29T08:14:46;77.43;;;23.75;;
49101;SDS011;34913;47.520;19.186;2023-12-29T08:17:11;64.50;;;25.95;;
49101;SDS011;34913;47.520;19.186;2023-12-29T08:19:37;72.10;;;23.77;;
49101;SDS011;34913;47.520;19.186;2023-12-29T08:22:03;71.40;;;25.63;;
49101;SDS011;34913;47.520;19.186;2023-12-29T08:24:28;42.38;;;23.92;;
49101;SDS011;34913;47.520;19.186;2023-12-29T08:26:53;71.53;;;23.15;;
49101;SDS011;34913;47.520;19.186;2023-12-29T08:29:19;82.78;;;24.42;;
49101;SDS011;34913;47.520;19.186;2023-12-29T08:31:44;76.35;;;24.98;;
49101;SDS011;34913;47.520;19.186;2023-12-29T08:34:10;54.42;;;24.58;;
49101;SDS011;34913;47.520;19.186;2023-12-29T08:36:35;58.20;;;24.35;;
49101;SDS011;34913;47.520;19.186;2023-12-29T08:39:01;68.05;;;25.23;;
49101;SDS011;34913;47.520;19.186;2023-12-29T08:41:27;61.70;;;25.80;;
49101;SDS011;34913;47.520;19.186;2023-12-29T08:43:52;76.55;;;26.13;;
49101;SDS011;34913;47.520;19.186;2023-12-29T08:46:18;64.35;;;27.27;;
49101;SDS011;34913;47.520;19.186;2023-12-29T08:48:43;46.28;;;25.65;;
49101;SDS011;34913;47.520;19.186;2023-12-29T08:51:09;58.58;;;25.13;;
49101;SDS011;34913;47.520;19.186;2023-12-29T08:53:34;48.92;;;24.77;;
49101;SDS011;34913;47.520;19.186;2023-12-29T08:56:01;54.33;;;26.35;;
49101;SDS011;34913;47.520;19.186;2023-12-29T08:58:27;54.10;;;28.58;;
49101;SDS011;34913;47.520;19.186;2023-12-29T09:00:52;51.97;;;26.98;;
49101;SDS011;34913;47.520;19.186;2023-12-29T09:03:17;57.47;;;26.02;;
49101;SDS011;34913;47.520;19.186;2023-12-29T09:05:43;45.15;;;26.88;;
49101;SDS011;34913;47.520;19.186;2023-12-29T09:08:08;47.58;;;25.08;;
49101;SDS011;34913;47.520;19.186;2023-12-29T09:10:34;58.85;;;29.92;;
49101;SDS011;34913;47.520;19.186;2023-12-29T09:12:59;44.95;;;25.48;;
49101;SDS011;34913;47.520;19.186;2023-12-29T09:15:24;43.67;;;24.40;;
49101;SDS011;34913;47.520;19.186;2023-12-29T09:17:50;46.28;;;25.05;;
49101;SDS011;34913;47.520;19.186;2023-12-29T09:20:16;38.90;;;24.08;;
49101;SDS011;34913;47.520;19.186;2023-12-29T09:22:41;49.33;;;27.08;;
49101;SDS011;34913;47.520;19.186;2023-12-29T09:25:07;46.08;;;26.58;;
49101;SDS011;34913;47.520;19.186;2023-12-29T09:27:32;40.33;;;24.55;;
49101;SDS011;34913;47.520;19.186;2023-12-29T09:29:57;38.85;;;23.75;;
49101;SDS011;34913;47.520;19.186;2023-12-29T09:32:23;45.05;;;24.13;;
49101;SDS011;34913;47.520;19.186;2023-12-29T09:34:48;38.50;;;24.50;;
49101;SDS011;34913;47.520;19.186;2023-12-29T09:37:14;37.30;;;24.23;;
49101;SDS011;34913;47.520;19.186;2023-12-29T09:39:39;40.30;;;23.33;;
49101;SDS011;34913;47.520;19.186;2023-12-29T09:42:04;34.88;;;22.83;;
49101;SDS011;34913;47.520;19.186;2023-12-29T09:44:31;33.03;;;21.98;;
49101;SDS011;34913;47.520;19.186;2023-12-29T09:47:03;35.95;;;22.33;;
49101;SDS011;34913;47.520;19.186;2023-12-29T09:49:31;38.08;;;23.15;;
49101;SDS011;34913;47.520;19.186;2023-12-29T09:52:04;40.03;;;23.35;;
49101;SDS011;34913;47.520;19.186;2023-12-29T09:54:32;41.75;;;24.30;;
49101;SDS011;34913;47.520;19.186;2023-12-29T09:56:58;38.30;;;24.48;;
49101;SDS011;34913;47.520;19.186;2023-12-29T09:59:24;44.45;;;24.02;;
49101;SDS011;34913;47.520;19.186;2023-12-29T10:01:51;39.97;;;23.98;;
49101;SDS011;34913;47.520;19.186;2023-12-29T10:04:18;43.67;;;25.10;;
49101;SDS011;34913;47.520;19.186;2023-12-29T10:06:44;44.67;;;26.42;;
49101;SDS011;34913;47.520;19.186;2023-12-29T10:09:12;45.50;;;26.40;;
49101;SDS011;34913;47.520;19.186;2023-12-29T10:11:41;44.83;;;25.80;;
49101;SDS011;34913;47.520;19.186;2023-12-29T10:14:31;45.13;;;25.25;;
49101;SDS011;34913;47.520;19.186;2023-12-29T10:17:16;43.50;;;25.42;;
49101;SDS011;34913;47.520;19.186;2023-12-29T10:20:04;45.03;;;25.77;;
49101;SDS011;34913;47.520;19.186;2023-12-29T10:23:08;42.22;;;25.80;;
49101;SDS011;34913;47.520;19.186;2023-12-29T10:25:34;41.22;;;26.90;;
49101;SDS011;34913;47.520;19.186;2023-12-29T10:28:00;41.90;;;27.70;;
49101;SDS011;34913;47.520;19.186;2023-12-29T10:30:26;43.83;;;28.27;;
49101;SDS011;34913;47.520;19.186;2023-12-29T10:32:52;41.63;;;25.73;;
49101;SDS011;34913;47.520;19.186;2023-12-29T10:35:17;38.90;;;24.67;;
49101;SDS011;34913;47.520;19.186;2023-12-29T10:37:43;38.83;;;25.27;;
49101;SDS011;34913;47.520;19.186;2023-12-29T10:40:08;42.58;;;25.80;;
49101;SDS011;34913;47.520;19.186;2023-12-29T10:42:51;39.30;;;25.50;;
49101;SDS011;34913;47.520;19.186;2023-12-29T10:45:17;35.75;;;23.77;;
49101;SDS011;34913;47.520;19.186;2023-12-29T10:47:45;31.92;;;20.08;;
49101;SDS011;34913;47.520;19.186;2023-12-29T10:50:11;29.17;;;19.63;;
49101;SDS011;34913;47.520;19.186;2023-12-29T10:52:36;29.20;;;18.55;;
49101;SDS011;34913;47.520;19.186;2023-12-29T10:55:21;26.83;;;17.52;;
49101;SDS011;34913;47.520;19.186;2023-12-29T10:57:49;25.48;;;16.27;;
49101;SDS011;34913;47.520;19.186;2023-12-29T11:00:29;23.17;;;14.85;;
49101;SDS011;34913;47.520;19.186;2023-12-29T11:02:55;21.83;;;14.60;;
49101;SDS011;34913;47.520;19.186;2023-12-29T11:05:24;23.88;;;14.57;;
49101;SDS011;34913;47.520;19.186;2023-12-29T11:07:50;22.38;;;14.40;;
49101;SDS011;34913;47.520;19.186;2023-12-29T11:10:19;20.08;;;14.15;;
49101;SDS011;34913;47.520;19.186;2023-12-29T11:12:45;19.75;;;13.77;;
49101;SDS011;34913;47.520;19.186;2023-12-29T11:15:13;21.80;;;14.48;;
49101;SDS011;34913;47.520;19.186;2023-12-29T11:17:39;22.42;;;15.30;;
49101;SDS011;34913;47.520;19.186;2023-12-29T11:20:14;21.45;;;14.95;;
49101;SDS011;34913;47.520;19.186;2023-12-29T11:22:41;20.35;;;14.40;;
49101;SDS011;34913;47.520;19.186;2023-12-29T11:25:07;20.08;;;15.18;;
49101;SDS011;34913;47.520;19.186;2023-12-29T11:27:33;22.05;;;15.35;;
49101;SDS011;34913;47.520;19.186;2023-12-29T11:30:00;23.48;;;15.98;;
49101;SDS011;34913;47.520;19.186;2023-12-29T11:35:25;23.45;;;15.88;;
49101;SDS011;34913;47.520;19.186;2023-12-29T11:40:59;22.95;;;16.67;;
49101;SDS011;34913;47.520;19.186;2023-12-29T11:43:34;25.40;;;16.98;;
49101;SDS011;34913;47.520;19.186;2023-12-29T11:45:59;24.42;;;16.95;;
49101;SDS011;34913;47.520;19.186;2023-12-29T11:54:09;25.05;;;16.55;;
49101;SDS011;34913;47.520;19.186;2023-12-29T11:59:12;23.17;;;15.88;;
49101;SDS011;34913;47.520;19.186;2023-12-29T12:01:48;21.33;;;16.48;;
49101;SDS011;34913;47.520;19.186;2023-12-29T12:04:39;22.33;;;16.05;;
49101;SDS011;34913;47.520;19.186;2023-12-29T12:07:11;25.42;;;16.77;;
49101;SDS011;34913;47.520;19.186;2023-12-29T12:12:48;20.00;;;13.93;;
49101;SDS011;34913;47.520;19.186;2023-12-29T12:17:54;18.38;;;12.80;;
49101;SDS011;34913;47.520;19.186;2023-12-29T12:20:20;19.00;;;12.52;;
49101;SDS011;34913;47.520;19.186;2023-12-29T12:22:47;15.27;;;11.73;;
49101;SDS011;34913;47.520;19.186;2023-12-29T12:25:21;18.20;;;11.88;;
49101;SDS011;34913;47.520;19.186;2023-12-29T12:27:47;14.77;;;11.43;;
49101;SDS011;34913;47.520;19.186;2023-12-29T12:30:13;17.50;;;12.20;;
49101;SDS011;34913;47.520;19.186;2023-12-29T12:32:43;18.92;;;12.43;;
49101;SDS011;34913;47.520;19.186;2023-12-29T12:35:15;15.90;;;11.45;;
49101;SDS011;34913;47.520;19.186;2023-12-29T12:37:41;16.23;;;11.35;;
49101;SDS011;34913;47.520;19.186;2023-12-29T12:40:07;15.98;;;11.77;;
49101;SDS011;34913;47.520;19.186;2023-12-29T12:42:34;18.08;;;12.13;;
49101;SDS011;34913;47.520;19.186;2023-12-29T12:45:16;18.77;;;12.55;;
49101;SDS011;34913;47.520;19.186;2023-12-29T12:47:45;17.33;;;12.30;;
49101;SDS011;34913;47.520;19.186;2023-12-29T12:50:20;17.30;;;11.90;;
49101;SDS011;34913;47.520;19.186;2023-12-29T12:52:46;17.45;;;12.23;;
49101;SDS011;34913;47.520;19.186;2023-12-29T12:55:12;17.67;;;13.43;;
49101;SDS011;34913;47.520;19.186;2023-12-29T12:57:39;19.08;;;13.73;;
49101;SDS011;34913;47.520;19.186;2023-12-29T13:00:05;19.80;;;13.10;;
49101;SDS011;34913;47.520;19.186;2023-12-29T13:02:32;20.42;;;14.68;;
49101;SDS011;34913;47.520;19.186;2023-12-29T13:04:59;23.02;;;14.70;;
49101;SDS011;34913;47.520;19.186;2023-12-29T13:07:24;25.08;;;16.30;;
49101;SDS011;34913;47.520;19.186;2023-12-29T13:09:50;24.83;;;17.10;;
49101;SDS011;34913;47.520;19.186;2023-12-29T13:12:17;25.08;;;17.55;;
49101;SDS011;34913;47.520;19.186;2023-12-29T13:14:43;23.08;;;17.23;;
49101;SDS011;34913;47.520;19.186;2023-12-29T13:17:09;24.42;;;17.33;;
49101;SDS011;34913;47.520;19.186;2023-12-29T13:19:36;26.45;;;17.40;;
49101;SDS011;34913;47.520;19.186;2023-12-29T13:22:04;24.85;;;18.00;;
49101;SDS011;34913;47.520;19.186;2023-12-29T13:24:32;24.77;;;16.42;;
49101;SDS011;34913;47.520;19.186;2023-12-29T13:26:58;24.52;;;18.00;;
49101;SDS011;34913;47.520;19.186;2023-12-29T13:29:29;30.48;;;18.83;;
49101;SDS011;34913;47.520;19.186;2023-12-29T13:31:58;27.88;;;18.45;;
49101;SDS011;34913;47.520;19.186;2023-12-29T13:37:17;23.33;;;16.38;;
49101;SDS011;34913;47.520;19.186;2023-12-29T13:39:53;22.17;;;15.75;;
49101;SDS011;34913;47.520;19.186;2023-12-29T13:42:24;22.40;;;15.23;;
49101;SDS011;34913;47.520;19.186;2023-12-29T13:44:55;23.73;;;15.55;;
49101;SDS011;34913;47.520;19.186;2023-12-29T13:47:21;21.85;;;15.32;;
49101;SDS011;34913;47.520;19.186;2023-12-29T13:49:48;23.10;;;15.73;;
49101;SDS011;34913;47.520;19.186;2023-12-29T13:52:15;23.98;;;16.20;;
49101;SDS011;34913;47.520;19.186;2023-12-29T13:54:42;21.52;;;15.60;;
49101;SDS011;34913;47.520;19.186;2023-12-29T13:57:08;20.88;;;15.25;;
49101;SDS011;34913;47.520;19.186;2023-12-29T13:59:34;22.52;;;15.40;;
49101;SDS011;34913;47.520;19.186;2023-12-29T14:02:03;23.65;;;15.75;;
49101;SDS011;34913;47.520;19.186;2023-12-29T14:04:44;21.13;;;14.95;;
49101;SDS011;34913;47.520;19.186;2023-12-29T14:07:10;19.88;;;14.52;;
49101;SDS011;34913;47.520;19.186;2023-12-29T14:09:36;21.50;;;15.18;;
49101;SDS011;34913;47.520;19.186;2023-12-29T14:12:02;20.25;;;15.18;;
49101;SDS011;34913;47.520;19.186;2023-12-29T14:14:27;26.15;;;16.17;;
49101;SDS011;34913;47.520;19.186;2023-12-29T14:16:53;23.05;;;15.50;;
49101;SDS011;34913;47.520;19.186;2023-12-29T14:19:19;22.65;;;15.10;;
49101;SDS011;34913;47.520;19.186;2023-12-29T14:21:45;25.45;;;15.55;;
49101;SDS011;34913;47.520;19.186;2023-12-29T14:24:15;22.55;;;16.10;;
49101;SDS011;34913;47.520;19.186;2023-12-29T14:29:19;26.65;;;16.02;;
49101;SDS011;34913;47.520;19.186;2023-12-29T14:31:47;23.23;;;15.95;;
49101;SDS011;34913;47.520;19.186;2023-12-29T14:34:13;24.75;;;17.00;;